createdAt,value
2018-05-27T00:01:19.042Z,102012.49
2018-05-27T00:03:55.332Z,102024.20
2018-05-27T00:06:23.900Z,102024.55
2018-05-27T00:08:52.773Z,102027.54
2018-05-27T00:11:21.232Z,102026.38
2018-05-27T00:13:51.664Z,102017.83
2018-05-27T00:16:19.881Z,102026.44
2018-05-27T00:18:48.610Z,102016.97
2018-05-27T00:21:17.705Z,102022.04
2018-05-27T00:23:46.704Z,102016.83
2018-05-27T00:26:15.004Z,102013.08
2018-05-27T00:28:42.628Z,102014.71
2018-05-27T00:31:10.487Z,102011.56
2018-05-27T00:33:38.108Z,102017.17
2018-05-27T00:36:06.133Z,102014.62
2018-05-27T00:38:33.873Z,102007.52
2018-05-27T00:41:02.370Z,102013.94
2018-05-27T00:43:30.022Z,102005.80
2018-05-27T00:45:57.619Z,102013.90
2018-05-27T00:48:25.563Z,102019.90
2018-05-27T00:50:53.781Z,102026.22
2018-05-27T00:53:34.695Z,102022.55
2018-05-27T00:56:03.153Z,102018.79
2018-05-27T00:58:30.798Z,102018.56
2018-05-27T01:00:58.438Z,102016.47
2018-05-27T01:03:26.130Z,102016.75
2018-05-27T01:05:54.320Z,102023.71
2018-05-27T01:08:21.915Z,102014.55
2018-05-27T01:10:50.654Z,102012.89
2018-05-27T01:13:18.357Z,102012.56
2018-05-27T01:15:47.701Z,102010.05
2018-05-27T01:20:58.854Z,102020.78
2018-05-27T01:23:27.462Z,102014.33
2018-05-27T01:25:55.676Z,102012.80
2018-05-27T01:28:23.601Z,102011.73
2018-05-27T01:30:51.233Z,102011.39
2018-05-27T01:33:18.867Z,102005.91
2018-05-27T01:35:47.422Z,102005.02
2018-05-27T01:38:15.073Z,102009.80
2018-05-27T01:40:43.336Z,102012.36
2018-05-27T01:43:12.077Z,102010.36
2018-05-27T01:45:39.720Z,102009.32
2018-05-27T01:48:07.306Z,102014.84
2018-05-27T01:50:34.877Z,102010.16
2018-05-27T01:53:03.023Z,102011.03
2018-05-27T01:55:31.128Z,102010.50
2018-05-27T02:00:25.658Z,102009.98
2018-05-27T02:02:53.601Z,102001.25
2018-05-27T02:05:21.779Z,102005.29
2018-05-27T02:07:49.339Z,102005.53
2018-05-27T02:10:17.935Z,101997.34
2018-05-27T02:12:45.808Z,101997.20
2018-05-27T02:15:17.202Z,101999.42
2018-05-27T02:17:45.232Z,101999.72
2018-05-27T02:20:13.649Z,102000.08
2018-05-27T02:22:41.766Z,102008.70
2018-05-27T02:25:10.006Z,102000.70
2018-05-27T02:27:37.593Z,102000.55
2018-05-27T02:30:05.203Z,102007.22
2018-05-27T02:32:32.893Z,102008.75
2018-05-27T02:35:01.308Z,102008.60
2018-05-27T02:37:28.914Z,102010.34
2018-05-27T02:39:56.623Z,102008.25
2018-05-27T02:42:24.749Z,102011.62
2018-05-27T02:44:52.360Z,102013.48
2018-05-27T02:47:19.955Z,102006.81
2018-05-27T02:49:47.776Z,102007.16
2018-05-27T02:52:15.523Z,102004.41
2018-05-27T02:54:44.335Z,102013.30
2018-05-27T02:57:11.907Z,102016.89
2018-05-27T02:59:39.988Z,102017.62
2018-05-27T03:02:07.647Z,102016.70
2018-05-27T03:04:35.245Z,102009.66
2018-05-27T03:07:03.980Z,102008.98
2018-05-27T03:09:33.751Z,102011.52
2018-05-27T03:12:01.337Z,102011.52
2018-05-27T03:14:29.561Z,102014.92
2018-05-27T03:16:57.242Z,102019.44
2018-05-27T03:19:25.232Z,102029.52
2018-05-27T03:21:53.900Z,102031.65
2018-05-27T03:24:21.991Z,102029.88
2018-05-27T03:26:50.122Z,102032.83
2018-05-27T03:29:19.253Z,102035.26
2018-05-27T03:31:48.834Z,102037.56
2018-05-27T03:34:17.459Z,102044.12
2018-05-27T03:36:45.633Z,102046.56
2018-05-27T03:39:13.265Z,102042.83
2018-05-27T03:41:41.757Z,102039.41
2018-05-27T03:44:09.298Z,102032.14
2018-05-27T03:46:36.928Z,102025.05
2018-05-27T03:49:04.518Z,102025.63
2018-05-27T03:51:32.128Z,102036.03
2018-05-27T03:54:00.660Z,102035.80
2018-05-27T03:56:28.688Z,102043.92
2018-05-27T03:58:57.368Z,102048.41
2018-05-27T04:01:24.920Z,102051.09
2018-05-27T04:04:04.461Z,102049.52
2018-05-27T04:06:44.234Z,102054.98
2018-05-27T04:09:12.454Z,102053.00
2018-05-27T04:11:40.072Z,102049.68
2018-05-27T04:14:08.317Z,102055.34
2018-05-27T04:16:36.343Z,102052.97
2018-05-27T04:19:04.512Z,102057.67
2018-05-27T04:21:33.277Z,102053.80
2018-05-27T04:24:00.808Z,102057.21
2018-05-27T04:26:29.109Z,102071.16
2018-05-27T04:28:57.411Z,102074.86
2018-05-27T04:31:25.285Z,102076.64
2018-05-27T04:33:54.678Z,102069.79
2018-05-27T04:36:22.492Z,102076.70
2018-05-27T04:38:50.128Z,102076.88
2018-05-27T04:41:18.763Z,102080.28
2018-05-27T04:43:47.695Z,102078.52
2018-05-27T04:46:15.397Z,102086.08
2018-05-27T04:48:43.092Z,102077.33
2018-05-27T04:51:10.670Z,102089.45
2018-05-27T04:53:38.299Z,102087.27
2018-05-27T04:56:07.064Z,102098.31
2018-05-27T04:58:35.435Z,102087.27
2018-05-27T05:01:03.017Z,102098.42
2018-05-27T05:03:30.656Z,102090.70
2018-05-27T05:05:59.089Z,102096.52
2018-05-27T05:08:26.876Z,102087.44
2018-05-27T05:10:55.062Z,102090.29
2018-05-27T05:13:22.739Z,102098.21
2018-05-27T05:15:50.858Z,102095.08
2018-05-27T05:18:18.544Z,102102.90
2018-05-27T05:20:48.025Z,102100.64
2018-05-27T05:23:16.339Z,102104.98
2018-05-27T05:25:44.765Z,102108.43
2018-05-27T05:28:13.207Z,102110.83
2018-05-27T05:30:40.957Z,102116.43
2018-05-27T05:33:08.508Z,102112.70
2018-05-27T05:35:36.728Z,102118.66
2018-05-27T05:38:04.312Z,102116.98
2018-05-27T05:40:31.902Z,102127.06
2018-05-27T05:42:59.506Z,102122.82
2018-05-27T05:45:27.100Z,102120.28
2018-05-27T05:47:54.841Z,102124.00
2018-05-27T05:50:22.677Z,102125.46
2018-05-27T05:52:51.555Z,102129.21
2018-05-27T05:55:19.816Z,102140.86
2018-05-27T05:57:48.408Z,102138.34
2018-05-27T06:00:16.994Z,102142.58
2018-05-27T06:02:45.147Z,102141.69
2018-05-27T06:05:13.481Z,102142.08
2018-05-27T06:07:41.869Z,102134.09
2018-05-27T06:10:10.193Z,102133.17
2018-05-27T06:12:37.877Z,102148.19
2018-05-27T06:15:07.290Z,102150.49
2018-05-27T06:17:35.252Z,102142.50
2018-05-27T06:20:03.670Z,102140.68
2018-05-27T06:22:31.344Z,102141.19
2018-05-27T06:24:59.039Z,102153.70
2018-05-27T06:27:27.053Z,102147.91
2018-05-27T06:29:54.742Z,102140.20
2018-05-27T06:32:22.510Z,102151.59
2018-05-27T06:34:50.751Z,102149.91
2018-05-27T06:37:18.372Z,102142.80
2018-05-27T06:39:45.952Z,102155.06
2018-05-27T06:42:14.019Z,102154.83
2018-05-27T06:44:41.644Z,102156.11
2018-05-27T06:47:10.426Z,102155.63
2018-05-27T06:49:38.111Z,102150.47
2018-05-27T06:52:06.594Z,102156.05
2018-05-27T06:54:35.297Z,102156.34
2018-05-27T06:57:03.839Z,102157.88
2018-05-27T06:59:32.054Z,102160.52
2018-05-27T07:01:59.641Z,102158.92
2018-05-27T07:04:27.256Z,102158.25
2018-05-27T07:06:55.349Z,102147.15
2018-05-27T07:09:23.702Z,102175.22
2018-05-27T07:11:51.242Z,102174.77
2018-05-27T07:14:19.654Z,102173.33
2018-05-27T07:16:48.010Z,102174.40
2018-05-27T07:19:16.799Z,102178.05
2018-05-27T07:21:44.382Z,102177.66
2018-05-27T07:24:11.929Z,102183.98
2018-05-27T07:26:40.672Z,102179.86
2018-05-27T07:29:10.208Z,102186.25
2018-05-27T07:31:37.943Z,102179.03
2018-05-27T07:34:06.415Z,102182.78
2018-05-27T07:36:34.031Z,102183.38
2018-05-27T07:39:01.584Z,102183.05
2018-05-27T07:41:29.300Z,102191.39
2018-05-27T07:43:57.275Z,102174.26
2018-05-27T07:46:25.055Z,102182.66
2018-05-27T07:48:52.711Z,102195.10
2018-05-27T07:51:20.346Z,102179.69
2018-05-27T07:53:48.789Z,102190.78
2018-05-27T07:56:17.632Z,102177.27
2018-05-27T07:58:46.085Z,102195.36
2018-05-27T08:01:13.639Z,102181.18
2018-05-27T08:03:41.676Z,102177.64
2018-05-27T08:06:09.883Z,102174.63
2018-05-27T08:08:37.487Z,102177.53
2018-05-27T08:11:05.794Z,102173.97
2018-05-27T08:13:33.354Z,102179.03
2018-05-27T08:16:02.094Z,102180.03
2018-05-27T08:18:30.390Z,102177.87
2018-05-27T08:20:58.573Z,102176.27
2018-05-27T08:23:26.113Z,102172.67
2018-05-27T08:25:54.462Z,102195.81
2018-05-27T08:28:22.013Z,102180.62
2018-05-27T08:30:49.576Z,102176.23
2018-05-27T08:33:17.936Z,102174.17
2018-05-27T08:35:46.394Z,102180.30
2018-05-27T08:38:13.969Z,102177.98
2018-05-27T08:40:41.537Z,102166.97
2018-05-27T08:43:09.130Z,102189.70
2018-05-27T08:45:36.680Z,102177.24
2018-05-27T08:48:04.269Z,102172.28
2018-05-27T08:50:32.273Z,102172.34
2018-05-27T08:52:59.889Z,102176.23
2018-05-27T08:55:28.077Z,102174.50
2018-05-27T08:57:55.655Z,102182.94
2018-05-27T09:00:24.066Z,102183.95
2018-05-27T09:02:51.707Z,102187.17
2018-05-27T09:05:20.068Z,102175.00
2018-05-27T09:07:47.826Z,102172.55
2018-05-27T09:10:16.317Z,102177.30
2018-05-27T09:12:43.944Z,102172.22
2018-05-27T09:15:12.332Z,102163.06
2018-05-27T09:17:39.835Z,102165.14
2018-05-27T09:20:07.725Z,102174.53
2018-05-27T09:22:35.275Z,102175.92
2018-05-27T09:25:03.656Z,102166.31
2018-05-27T09:27:31.195Z,102162.34
2018-05-27T09:32:38.829Z,102166.05
2018-05-27T09:35:07.102Z,102175.86
2018-05-27T09:37:34.644Z,102174.46
2018-05-27T09:40:02.242Z,102175.60
2018-05-27T09:42:29.840Z,102171.05
2018-05-27T09:44:57.560Z,102182.50
2018-05-27T09:47:25.103Z,102171.84
2018-05-27T09:49:53.639Z,102164.95
2018-05-27T09:52:21.200Z,102179.44
2018-05-27T09:54:49.832Z,102180.56
2018-05-27T09:57:17.586Z,102169.61
2018-05-27T09:59:45.674Z,102174.20
2018-05-27T10:02:13.267Z,102168.14
2018-05-27T10:04:40.839Z,102167.72
2018-05-27T10:07:08.970Z,102176.44
2018-05-27T10:09:37.286Z,102170.67
2018-05-27T10:12:04.844Z,102158.94
2018-05-27T10:14:33.155Z,102155.44
2018-05-27T10:17:00.940Z,102155.80
2018-05-27T10:19:29.017Z,102159.73
2018-05-27T10:21:56.571Z,102150.81
2018-05-27T10:24:24.333Z,102163.62
2018-05-27T10:26:52.491Z,102162.20
2018-05-27T10:29:20.056Z,102152.63
2018-05-27T10:31:48.854Z,102165.76
2018-05-27T10:34:17.048Z,102156.48
2018-05-27T10:36:44.622Z,102151.25
2018-05-27T10:39:12.233Z,102142.75
2018-05-27T10:41:39.822Z,102142.23
2018-05-27T10:44:07.397Z,102147.73
2018-05-27T10:46:34.944Z,102148.02
2018-05-27T10:49:02.598Z,102150.22
2018-05-27T10:51:30.151Z,102130.92
2018-05-27T10:53:58.575Z,102135.80
2018-05-27T10:56:27.301Z,102142.22
2018-05-27T10:58:55.356Z,102151.30
2018-05-27T11:01:23.508Z,102147.45
2018-05-27T11:03:51.099Z,102151.08
2018-05-27T11:06:19.510Z,102139.84
2018-05-27T11:08:47.300Z,102134.63
2018-05-27T11:11:15.664Z,102139.98
2018-05-27T11:13:43.263Z,102129.96
2018-05-27T11:16:11.560Z,102135.40
2018-05-27T11:18:39.091Z,102136.11
2018-05-27T11:21:07.265Z,102131.05
2018-05-27T11:23:34.828Z,102125.20
2018-05-27T11:26:02.873Z,102121.77
2018-05-27T11:28:30.461Z,102134.80
2018-05-27T11:30:58.047Z,102128.23
2018-05-27T11:33:25.632Z,102128.92
2018-05-27T11:35:53.722Z,102122.20
2018-05-27T11:38:21.282Z,102120.25
2018-05-27T11:40:48.871Z,102115.88
2018-05-27T11:43:16.729Z,102113.95
2018-05-27T11:45:44.318Z,102118.05
2018-05-27T11:48:11.892Z,102105.30
2018-05-27T11:50:39.492Z,102108.88
2018-05-27T11:53:07.083Z,102106.00
2018-05-27T11:55:35.253Z,102103.26
2018-05-27T11:58:02.828Z,102096.44
2018-05-27T12:00:30.885Z,102093.34
2018-05-27T12:02:59.461Z,102090.75
2018-05-27T12:05:27.572Z,102089.64
2018-05-27T12:07:55.146Z,102083.30
2018-05-27T12:10:23.206Z,102100.03
2018-05-27T12:12:50.781Z,102081.77
2018-05-27T12:15:18.968Z,102071.25
2018-05-27T12:17:46.715Z,102071.65
2018-05-27T12:20:15.084Z,102074.58
2018-05-27T12:22:42.636Z,102075.95
2018-05-27T12:25:10.864Z,102083.98
2018-05-27T12:27:38.434Z,102074.89
2018-05-27T12:30:06.605Z,102074.64
2018-05-27T12:32:34.156Z,102065.97
2018-05-27T12:35:02.587Z,102077.48
2018-05-27T12:37:30.140Z,102065.26
2018-05-27T12:39:57.727Z,102073.09
2018-05-27T12:42:25.471Z,102064.02
2018-05-27T12:44:53.643Z,102064.72
2018-05-27T12:47:21.533Z,102057.16
2018-05-27T12:49:50.485Z,102048.36
2018-05-27T12:52:19.111Z,102048.62
2018-05-27T12:54:48.747Z,102056.45
2018-05-27T12:57:17.472Z,102052.88
2018-05-27T12:59:46.229Z,102047.08
2018-05-27T13:02:13.800Z,102043.70
2018-05-27T13:04:41.382Z,102046.05
2018-05-27T13:07:09.556Z,102041.73
2018-05-27T13:09:37.474Z,102035.95
2018-05-27T13:12:05.038Z,102031.70
2018-05-27T13:14:33.919Z,102031.70
2018-05-27T13:17:01.639Z,102044.60
2018-05-27T13:19:29.812Z,102041.93
2018-05-27T13:21:57.361Z,102029.98
2018-05-27T13:24:25.179Z,102036.75
2018-05-27T13:26:53.759Z,102030.19
2018-05-27T13:29:21.334Z,102022.21
2018-05-27T13:31:49.608Z,102034.84
2018-05-27T13:34:18.375Z,102031.70
2018-05-27T13:36:47.644Z,102029.38
2018-05-27T13:39:15.315Z,102036.34
2018-05-27T13:41:42.899Z,102029.72
2018-05-27T13:44:10.492Z,102034.01
2018-05-27T13:46:38.056Z,102018.59
2018-05-27T13:49:05.720Z,102025.95
2018-05-27T13:51:33.943Z,102024.70
2018-05-27T13:54:01.492Z,102024.56
2018-05-27T13:56:29.059Z,102024.42
2018-05-27T13:58:57.546Z,102022.91
2018-05-27T14:01:25.472Z,102018.84
2018-05-27T14:03:53.175Z,102017.31
2018-05-27T14:06:21.441Z,102012.09
2018-05-27T14:08:48.986Z,102024.45
2018-05-27T14:11:17.664Z,102030.23
2018-05-27T14:13:45.227Z,102021.72
2018-05-27T14:16:14.586Z,102023.22
2018-05-27T14:18:42.553Z,102014.05
2018-05-27T14:21:10.716Z,102019.69
2018-05-27T14:23:38.254Z,102015.70
2018-05-27T14:26:06.603Z,102019.37
2018-05-27T14:28:34.156Z,102029.23
2018-05-27T14:31:02.194Z,102029.20
2018-05-27T14:33:29.829Z,102027.55
2018-05-27T14:35:58.278Z,102031.95
2018-05-27T14:38:25.848Z,102022.43
2018-05-27T14:40:53.583Z,102025.57
2018-05-27T14:43:21.623Z,102031.52
2018-05-27T14:45:49.177Z,102027.79
2018-05-27T14:48:16.776Z,102035.15
2018-05-27T14:50:44.359Z,102028.02
2018-05-27T14:53:12.707Z,102025.29
2018-05-27T14:55:41.240Z,102025.88
2018-05-27T14:58:08.794Z,102026.38
2018-05-27T15:00:37.015Z,102026.66
2018-05-27T15:03:04.559Z,102021.59
2018-05-27T15:05:32.931Z,102016.41
2018-05-27T15:08:00.480Z,102025.05
2018-05-27T15:10:28.859Z,102028.58
2018-05-27T15:12:56.416Z,102022.84
2018-05-27T15:15:24.772Z,102033.06
2018-05-27T15:17:52.319Z,102027.45
2018-05-27T15:20:20.390Z,102032.66
2018-05-27T15:22:48.015Z,102032.44
2018-05-27T15:25:16.672Z,102027.27
2018-05-27T15:27:44.228Z,102024.97
2018-05-27T15:30:12.670Z,102019.39
2018-05-27T15:32:40.205Z,102026.22
2018-05-27T15:35:08.587Z,102030.13
2018-05-27T15:37:36.169Z,102029.51
2018-05-27T15:40:03.796Z,102017.97
2018-05-27T15:42:31.435Z,102028.08
2018-05-27T15:44:59.026Z,102029.86
2018-05-27T15:47:26.572Z,102024.17
2018-05-27T15:49:55.054Z,102034.97
2018-05-27T15:52:22.645Z,102027.68
2018-05-27T15:54:51.306Z,102019.49
2018-05-27T15:57:18.840Z,102025.48
2018-05-27T15:59:47.172Z,102022.44
2018-05-27T16:02:14.738Z,102019.90
2018-05-27T16:04:42.306Z,102027.94
2018-05-27T16:07:10.564Z,102026.44
2018-05-27T16:09:38.709Z,102030.11
2018-05-27T16:12:06.270Z,102033.09
2018-05-27T16:14:34.317Z,102029.82
2018-05-27T16:17:01.911Z,102028.62
2018-05-27T16:19:30.201Z,102023.20
2018-05-27T16:21:57.843Z,102030.16
2018-05-27T16:24:25.380Z,102032.22
2018-05-27T16:26:53.926Z,102026.86
2018-05-27T16:29:21.503Z,102031.64
2018-05-27T16:31:52.620Z,102038.45
2018-05-27T16:34:20.716Z,102035.92
2018-05-27T16:36:48.276Z,102041.79
2018-05-27T16:39:16.321Z,102049.28
2018-05-27T16:41:43.886Z,102043.05
2018-05-27T16:44:11.432Z,102043.37
2018-05-27T16:46:39.087Z,102043.48
2018-05-27T16:49:06.805Z,102045.78
2018-05-27T16:51:34.813Z,102034.09
2018-05-27T16:54:03.172Z,102053.83
2018-05-27T16:56:31.660Z,102062.19
2018-05-27T16:59:00.395Z,102058.80
2018-05-27T17:01:27.974Z,102055.95
2018-05-27T17:03:55.544Z,102060.10
2018-05-27T17:06:24.051Z,102063.20
2018-05-27T17:08:51.608Z,102061.95
2018-05-27T17:11:19.814Z,102067.97
2018-05-27T17:13:47.543Z,102068.86
2018-05-27T17:16:15.847Z,102071.66
2018-05-27T17:18:44.097Z,102075.09
2018-05-27T17:21:11.654Z,102071.78
2018-05-27T17:23:39.205Z,102072.16
2018-05-27T17:26:07.605Z,102074.26
2018-05-27T17:28:35.194Z,102072.17
2018-05-27T17:31:03.399Z,102071.06
2018-05-27T17:33:31.067Z,102067.06
2018-05-27T17:35:59.195Z,102075.80
2018-05-27T17:38:26.776Z,102076.22
2018-05-27T17:40:54.399Z,102077.91
2018-05-27T17:43:22.010Z,102074.34
2018-05-27T17:45:49.588Z,102077.55
2018-05-27T17:48:18.828Z,102079.48
2018-05-27T17:50:46.927Z,102077.40
2018-05-27T17:53:15.105Z,102072.94
2018-05-27T17:55:42.645Z,102062.64
2018-05-27T17:58:10.200Z,102061.59
2018-05-27T18:00:38.658Z,102063.66
2018-05-27T18:03:06.216Z,102068.25
2018-05-27T18:05:34.323Z,102063.38
2018-05-27T18:08:01.953Z,102072.58
2018-05-27T18:10:30.442Z,102070.36
2018-05-27T18:12:58.007Z,102071.16
2018-05-27T18:15:26.123Z,102071.00
2018-05-27T18:17:53.893Z,102066.80
2018-05-27T18:20:22.185Z,102064.35
2018-05-27T18:22:49.744Z,102065.74
2018-05-27T18:25:18.032Z,102070.64
2018-05-27T18:27:45.751Z,102066.30
2018-05-27T18:30:14.623Z,102071.05
2018-05-27T18:32:42.168Z,102070.23
2018-05-27T18:35:10.808Z,102068.48
2018-05-27T18:37:38.354Z,102080.16
2018-05-27T18:40:05.917Z,102083.72
2018-05-27T18:42:33.608Z,102082.64
2018-05-27T18:45:01.265Z,102090.87
2018-05-27T18:47:29.228Z,102094.71
2018-05-27T18:49:56.838Z,102095.31
2018-05-27T18:52:24.500Z,102097.81
2018-05-27T18:54:52.768Z,102093.66
2018-05-27T18:57:20.311Z,102094.67
2018-05-27T18:59:48.971Z,102108.53
2018-05-27T19:02:16.684Z,102108.53
2018-05-27T19:04:44.950Z,102101.78
2018-05-27T19:07:13.031Z,102111.06
2018-05-27T19:09:41.278Z,102123.62
2018-05-27T19:12:08.843Z,102121.25
2018-05-27T19:14:37.240Z,102123.23
2018-05-27T19:17:05.498Z,102120.64
2018-05-27T19:19:33.922Z,102125.26
2018-05-27T19:22:01.681Z,102133.38
2018-05-27T19:24:29.356Z,102129.52
2018-05-27T19:26:57.837Z,102129.29
2018-05-27T19:29:25.552Z,102127.38
2018-05-27T19:31:53.748Z,102132.59
2018-05-27T19:34:22.095Z,102133.81
2018-05-27T19:36:49.701Z,102135.95
2018-05-27T19:39:17.547Z,102142.04
2018-05-27T19:41:45.424Z,102149.81
2018-05-27T19:44:14.206Z,102149.94
2018-05-27T19:46:41.775Z,102155.20
2018-05-27T19:49:09.427Z,102153.27
2018-05-27T19:51:37.055Z,102154.35
2018-05-27T19:54:06.522Z,102157.70
2018-05-27T19:56:34.269Z,102157.20
2018-05-27T19:59:02.441Z,102154.11
2018-05-27T20:01:30.046Z,102163.56
2018-05-27T20:03:57.759Z,102159.72
2018-05-27T20:06:26.110Z,102173.71
2018-05-27T20:08:53.744Z,102173.30
2018-05-27T20:11:22.458Z,102168.20
2018-05-27T20:13:50.932Z,102169.63
2018-05-27T20:16:19.224Z,102165.98
2018-05-27T20:18:47.755Z,102169.30
2018-05-27T20:21:15.306Z,102170.34
2018-05-27T20:23:43.389Z,102172.92
2018-05-27T20:26:11.479Z,102168.59
2018-05-27T20:28:39.082Z,102178.48
2018-05-27T20:31:06.646Z,102181.67
2018-05-27T20:33:34.225Z,102180.39
2018-05-27T20:36:02.480Z,102186.48
2018-05-27T20:38:30.081Z,102187.48
2018-05-27T20:40:58.524Z,102183.90
2018-05-27T20:43:26.073Z,102187.74
2018-05-27T20:45:53.878Z,102185.09
2018-05-27T20:48:21.827Z,102189.73
2018-05-27T20:50:49.428Z,102198.11
2018-05-27T20:53:18.068Z,102201.79
2018-05-27T20:55:45.820Z,102199.92
2018-05-27T20:58:13.967Z,102198.89
2018-05-27T21:00:42.266Z,102208.28
2018-05-27T21:03:09.947Z,102205.66
2018-05-27T21:05:38.112Z,102203.24
2018-05-27T21:08:06.331Z,102212.11
2018-05-27T21:10:34.562Z,102208.84
2018-05-27T21:13:02.172Z,102212.72
2018-05-27T21:15:30.956Z,102207.18
2018-05-27T21:17:58.572Z,102199.89
2018-05-27T21:20:26.739Z,102200.08
2018-05-27T21:22:54.484Z,102204.21
2018-05-27T21:25:23.515Z,102203.55
2018-05-27T21:27:51.112Z,102214.03
2018-05-27T21:30:19.190Z,102211.38
2018-05-27T21:32:47.108Z,102208.01
2018-05-27T21:35:17.217Z,102210.28
2018-05-27T21:37:44.910Z,102209.75
2018-05-27T21:40:12.884Z,102209.35
2018-05-27T21:42:40.464Z,102209.66
2018-05-27T21:45:08.027Z,102213.13
2018-05-27T21:47:35.637Z,102205.59
2018-05-27T21:50:03.273Z,102209.43
2018-05-27T21:52:30.896Z,102200.09
2018-05-27T21:54:58.828Z,102202.59
2018-05-27T21:57:26.392Z,102199.40
2018-05-27T21:59:54.870Z,102197.84
2018-05-27T22:02:22.597Z,102208.12
2018-05-27T22:04:50.858Z,102209.11
2018-05-27T22:07:19.241Z,102216.62
2018-05-27T22:09:47.511Z,102223.82
2018-05-27T22:12:15.143Z,102216.17
2018-05-27T22:14:43.110Z,102215.56
2018-05-27T22:17:10.730Z,102214.62
2018-05-27T22:19:38.871Z,102215.66
2018-05-27T22:22:06.435Z,102218.91
2018-05-27T22:24:34.067Z,102220.36
2018-05-27T22:27:02.276Z,102227.79
2018-05-27T22:29:29.830Z,102222.03
2018-05-27T22:31:57.386Z,102223.16
2018-05-27T22:34:25.588Z,102229.09
2018-05-27T22:36:53.790Z,102225.98
2018-05-27T22:39:21.354Z,102228.61
2018-05-27T22:41:48.908Z,102218.74
2018-05-27T22:44:16.874Z,102221.53
2018-05-27T22:46:45.257Z,102219.56
2018-05-27T22:49:12.955Z,102222.19
2018-05-27T22:51:41.539Z,102238.95
2018-05-27T22:54:12.337Z,102236.02
2018-05-27T22:56:39.895Z,102233.67
2018-05-27T22:59:08.152Z,102235.70
2018-05-27T23:01:35.767Z,102230.08
2018-05-27T23:04:03.407Z,102229.27
2018-05-27T23:06:31.623Z,102223.65
2018-05-27T23:08:59.330Z,102228.72
2018-05-27T23:11:27.367Z,102235.47
2018-05-27T23:13:54.907Z,102237.56
2018-05-27T23:16:23.092Z,102237.64
2018-05-27T23:18:51.382Z,102241.19
2018-05-27T23:21:19.352Z,102230.47
2018-05-27T23:23:47.162Z,102233.89
2018-05-27T23:26:15.271Z,102235.31
2018-05-27T23:28:42.963Z,102239.11
2018-05-27T23:31:10.502Z,102235.16
2018-05-27T23:33:39.043Z,102227.29
2018-05-27T23:36:07.818Z,102223.84
2018-05-27T23:38:35.388Z,102220.30
2018-05-27T23:41:02.933Z,102224.84
2018-05-27T23:43:30.521Z,102223.99
2018-05-27T23:45:58.078Z,102228.00
2018-05-27T23:48:25.722Z,102229.19
2018-05-27T23:50:54.304Z,102229.49
2018-05-27T23:53:22.991Z,102224.80
2018-05-27T23:55:50.539Z,102218.29
2018-05-27T23:58:18.089Z,102212.42
